createdAt,value
2019-03-23T00:02:13.110Z,102.93
2019-03-23T00:04:41.409Z,98.43
2019-03-23T00:07:09.726Z,100.73
2019-03-23T00:09:38.035Z,104.23
2019-03-23T00:12:06.362Z,113.83
2019-03-23T00:14:35.457Z,149.40
2019-03-23T00:17:04.099Z,150.13
2019-03-23T00:19:32.683Z,135.43
2019-03-23T00:22:01.010Z,132.40
2019-03-23T00:24:29.648Z,134.33
2019-03-23T00:26:58.198Z,135.57
2019-03-23T00:29:26.494Z,129.40
2019-03-23T00:31:56.729Z,132.03
2019-03-23T00:34:25.359Z,126.83
2019-03-23T00:36:53.705Z,119.37
2019-03-23T00:39:22.485Z,110.33
2019-03-23T00:41:51.174Z,117.00
2019-03-23T00:44:19.748Z,108.03
2019-03-23T00:46:48.340Z,115.67
2019-03-23T00:49:18.048Z,115.27
2019-03-23T00:51:46.322Z,109.70
2019-03-23T00:54:14.605Z,104.53
2019-03-23T00:56:42.915Z,128.73
2019-03-23T00:59:11.226Z,102.77
2019-03-23T01:01:39.588Z,107.87
2019-03-23T01:04:07.954Z,123.57
2019-03-23T01:06:36.405Z,100.20
2019-03-23T01:09:07.026Z,101.43
2019-03-23T01:11:35.602Z,101.10
2019-03-23T01:14:04.186Z,102.97
2019-03-23T01:16:32.480Z,113.97
2019-03-23T01:19:01.050Z,111.83
2019-03-23T01:21:31.370Z,113.60
2019-03-23T01:23:59.673Z,107.93
2019-03-23T01:26:27.962Z,108.07
2019-03-23T01:28:56.274Z,105.30
2019-03-23T01:31:24.839Z,97.20
2019-03-23T01:33:53.189Z,100.47
2019-03-23T01:36:21.731Z,102.27
2019-03-23T01:38:50.020Z,98.67
2019-03-23T01:41:18.590Z,101.03
2019-03-23T01:43:46.879Z,87.80
2019-03-23T01:46:15.492Z,105.90
2019-03-23T01:48:44.071Z,102.63
2019-03-23T01:51:12.654Z,106.43
2019-03-23T01:53:41.238Z,102.43
2019-03-23T01:56:09.538Z,107.20
2019-03-23T01:58:39.475Z,107.73
2019-03-23T02:01:09.681Z,107.40
2019-03-23T02:03:38.251Z,104.80
2019-03-23T02:06:06.569Z,105.23
2019-03-23T02:08:35.200Z,103.97
2019-03-23T02:11:03.505Z,96.60
2019-03-23T02:13:32.059Z,97.40
2019-03-23T02:16:00.346Z,89.43
2019-03-23T02:18:28.675Z,86.07
2019-03-23T02:20:57.013Z,81.53
2019-03-23T02:23:25.680Z,88.57
2019-03-23T02:25:53.965Z,101.23
2019-03-23T02:28:22.269Z,105.23
2019-03-23T02:30:50.577Z,100.63
2019-03-23T02:33:18.874Z,98.77
2019-03-23T02:35:47.253Z,97.63
2019-03-23T02:38:15.539Z,98.93
2019-03-23T02:40:43.897Z,95.90
2019-03-23T02:43:12.616Z,96.97
2019-03-23T02:45:40.927Z,94.67
2019-03-23T02:48:09.213Z,96.37
2019-03-23T02:50:37.625Z,95.27
2019-03-23T02:53:06.060Z,93.30
2019-03-23T02:55:34.334Z,83.17
2019-03-23T02:58:02.989Z,72.50
2019-03-23T03:00:31.286Z,81.20
2019-03-23T03:02:59.582Z,84.73
2019-03-23T03:05:30.757Z,88.30
2019-03-23T03:07:59.369Z,86.90
2019-03-23T03:10:40.571Z,85.63
2019-03-23T03:13:08.866Z,84.57
2019-03-23T03:15:37.171Z,82.23
2019-03-23T03:18:06.805Z,81.93
2019-03-23T03:20:35.430Z,82.30
2019-03-23T03:23:03.733Z,81.90
2019-03-23T03:25:32.376Z,81.80
2019-03-23T03:28:00.676Z,82.63
2019-03-23T03:30:29.254Z,82.60
2019-03-23T03:32:57.911Z,80.40
2019-03-23T03:35:26.497Z,76.97
2019-03-23T03:37:56.691Z,78.07
2019-03-23T03:40:25.193Z,76.63
2019-03-23T03:42:53.769Z,77.13
2019-03-23T03:45:24.729Z,77.63
2019-03-23T03:47:53.025Z,75.60
2019-03-23T03:50:21.319Z,73.60
2019-03-23T03:52:49.950Z,73.87
2019-03-23T03:55:18.266Z,73.00
2019-03-23T03:57:47.020Z,73.63
2019-03-23T04:00:15.723Z,72.93
2019-03-23T04:02:44.083Z,74.50
2019-03-23T04:05:12.673Z,69.87
2019-03-23T04:07:40.974Z,70.87
2019-03-23T04:10:09.933Z,70.10
2019-03-23T04:12:38.225Z,68.87
2019-03-23T04:15:10.231Z,68.60
2019-03-23T04:17:38.586Z,68.93
2019-03-23T04:20:08.991Z,67.00
2019-03-23T04:22:37.294Z,67.70
2019-03-23T04:25:07.179Z,66.33
2019-03-23T04:27:35.552Z,65.53
2019-03-23T04:30:06.499Z,66.70
2019-03-23T04:32:35.084Z,66.60
2019-03-23T04:35:04.306Z,65.03
2019-03-23T04:37:32.681Z,66.27
2019-03-23T04:40:01.238Z,63.43
2019-03-23T04:42:29.615Z,62.70
2019-03-23T04:44:58.194Z,64.17
2019-03-23T04:47:26.490Z,64.57
2019-03-23T04:49:57.834Z,63.53
2019-03-23T04:52:26.399Z,62.03
2019-03-23T04:54:56.626Z,62.07
2019-03-23T04:57:25.175Z,62.53
2019-03-23T04:59:53.795Z,59.40
2019-03-23T05:02:22.386Z,59.60
2019-03-23T05:04:50.671Z,58.87
2019-03-23T05:07:19.243Z,59.83
2019-03-23T05:09:47.531Z,59.80
2019-03-23T05:12:15.810Z,59.00
2019-03-23T05:14:44.111Z,58.57
2019-03-23T05:17:12.399Z,56.57
2019-03-23T05:19:40.703Z,57.30
2019-03-23T05:22:08.997Z,54.87
2019-03-23T05:24:37.285Z,57.80
2019-03-23T05:27:05.863Z,54.80
2019-03-23T05:29:34.447Z,52.30
2019-03-23T05:32:03.027Z,50.30
2019-03-23T05:34:31.302Z,56.03
2019-03-23T05:36:59.891Z,58.30
2019-03-23T05:39:28.476Z,60.43
2019-03-23T05:41:56.794Z,60.87
2019-03-23T05:44:25.330Z,56.40
2019-03-23T05:46:54.414Z,58.83
2019-03-23T05:49:22.887Z,56.20
2019-03-23T05:51:51.168Z,56.60
2019-03-23T05:54:19.769Z,55.97
2019-03-23T05:56:49.994Z,53.90
2019-03-23T05:59:18.299Z,55.43
2019-03-23T06:01:46.603Z,53.00
2019-03-23T06:04:15.226Z,53.27
2019-03-23T06:06:43.814Z,52.87
2019-03-23T06:09:12.394Z,52.57
2019-03-23T06:11:40.739Z,52.70
2019-03-23T06:14:09.301Z,52.23
2019-03-23T06:16:37.838Z,51.83
2019-03-23T06:19:06.430Z,52.30
2019-03-23T06:21:35.010Z,51.03
2019-03-23T06:24:03.298Z,50.77
2019-03-23T06:26:31.881Z,51.63
2019-03-23T06:29:00.455Z,51.67
2019-03-23T06:31:28.762Z,51.97
2019-03-23T06:33:57.311Z,49.37
2019-03-23T06:36:25.895Z,49.17
2019-03-23T06:39:04.843Z,48.53
2019-03-23T06:41:24.802Z,46.50
2019-03-23T06:43:53.080Z,49.33
2019-03-23T06:46:21.409Z,47.60
2019-03-23T06:48:50.070Z,46.73
2019-03-23T06:51:18.368Z,46.87
2019-03-23T06:53:46.648Z,46.27
2019-03-23T06:56:14.941Z,46.33
2019-03-23T06:58:43.564Z,45.57
2019-03-23T07:01:11.863Z,45.43
2019-03-23T07:03:41.706Z,44.60
2019-03-23T07:06:10.340Z,45.17
2019-03-23T07:08:38.634Z,44.90
2019-03-23T07:11:06.914Z,45.77
2019-03-23T07:13:35.231Z,44.33
2019-03-23T07:16:03.954Z,43.30
2019-03-23T07:18:32.548Z,43.70
2019-03-23T07:21:01.126Z,42.80
2019-03-23T07:23:29.667Z,42.57
2019-03-23T07:25:58.295Z,41.57
2019-03-23T07:28:26.578Z,41.03
2019-03-23T07:30:54.878Z,41.77
2019-03-23T07:33:23.157Z,41.33
2019-03-23T07:35:51.463Z,40.80
2019-03-23T07:38:19.746Z,40.73
2019-03-23T07:40:54.639Z,41.63
2019-03-23T07:43:22.984Z,40.77
2019-03-23T07:45:51.336Z,40.50
2019-03-23T07:48:19.963Z,40.23
2019-03-23T07:50:48.562Z,40.40
2019-03-23T07:53:17.240Z,40.20
2019-03-23T07:55:45.545Z,38.13
2019-03-23T07:58:13.930Z,43.37
2019-03-23T08:00:42.235Z,51.57
2019-03-23T08:03:10.858Z,56.47
2019-03-23T08:05:39.155Z,49.43
2019-03-23T08:08:07.721Z,46.90
2019-03-23T08:10:36.298Z,47.40
2019-03-23T08:13:04.602Z,49.60
2019-03-23T08:15:33.163Z,50.60
2019-03-23T08:18:01.756Z,48.10
2019-03-23T08:20:30.266Z,49.37
2019-03-23T08:22:58.618Z,47.43
2019-03-23T08:25:26.966Z,47.67
2019-03-23T08:27:55.271Z,48.77
2019-03-23T08:30:23.838Z,46.00
2019-03-23T08:32:52.426Z,44.50
2019-03-23T08:35:21.111Z,46.33
2019-03-23T08:37:49.923Z,45.63
2019-03-23T08:40:18.538Z,45.73
2019-03-23T08:42:47.165Z,43.83
2019-03-23T08:45:17.240Z,43.33
2019-03-23T08:47:45.993Z,43.87
2019-03-23T08:50:14.496Z,42.63
2019-03-23T08:52:43.399Z,44.20
2019-03-23T08:55:11.763Z,41.23
2019-03-23T08:57:41.411Z,43.63
2019-03-23T09:00:10.239Z,41.83
2019-03-23T09:02:38.530Z,40.73
2019-03-23T09:05:07.092Z,42.33
2019-03-23T09:07:38.376Z,40.73
2019-03-23T09:10:07.383Z,41.60
2019-03-23T09:12:36.008Z,41.57
2019-03-23T09:15:06.968Z,38.93
2019-03-23T09:17:35.371Z,40.50
2019-03-23T09:20:06.186Z,39.63
2019-03-23T09:22:36.672Z,38.70
2019-03-23T09:25:06.297Z,38.67
2019-03-23T09:27:35.031Z,49.73
2019-03-23T09:30:05.056Z,43.70
2019-03-23T09:32:33.690Z,44.40
2019-03-23T09:35:01.975Z,45.50
2019-03-23T09:37:30.276Z,49.73
2019-03-23T09:39:59.813Z,54.67
2019-03-23T09:42:30.994Z,52.73
2019-03-23T09:44:59.286Z,52.73
2019-03-23T09:47:27.855Z,54.63
2019-03-23T09:49:56.148Z,73.37
2019-03-23T09:52:24.725Z,79.67
2019-03-23T09:54:53.303Z,73.23
2019-03-23T09:57:21.598Z,68.37
2019-03-23T09:59:50.167Z,67.53
2019-03-23T10:02:19.370Z,68.23
2019-03-23T10:04:47.699Z,88.17
2019-03-23T10:07:15.994Z,94.57
2019-03-23T10:09:44.306Z,99.00
2019-03-23T10:12:12.604Z,115.80
2019-03-23T10:14:41.014Z,119.67
2019-03-23T10:17:09.396Z,109.20
2019-03-23T10:19:38.013Z,105.60
2019-03-23T10:22:08.222Z,102.07
2019-03-23T10:24:36.819Z,97.00
2019-03-23T10:27:07.494Z,90.57
2019-03-23T10:29:36.138Z,88.23
2019-03-23T10:32:04.448Z,87.03
2019-03-23T10:34:32.731Z,83.97
2019-03-23T10:37:01.485Z,82.20
2019-03-23T10:39:30.349Z,77.63
2019-03-23T10:41:58.717Z,76.80
2019-03-23T10:44:27.015Z,90.80
2019-03-23T10:46:55.390Z,98.23
2019-03-23T10:49:23.953Z,101.90
2019-03-23T10:51:53.886Z,89.53
2019-03-23T10:54:22.470Z,92.57
2019-03-23T10:56:51.277Z,81.60
2019-03-23T10:59:19.970Z,82.60
2019-03-23T11:01:48.549Z,85.67
2019-03-23T11:04:17.084Z,84.77
2019-03-23T11:06:45.711Z,79.50
2019-03-23T11:09:14.015Z,76.27
2019-03-23T11:11:42.419Z,77.07
2019-03-23T11:14:10.951Z,78.17
2019-03-23T11:16:39.530Z,74.73
2019-03-23T11:19:13.291Z,68.30
2019-03-23T11:21:37.846Z,65.73
2019-03-23T11:24:06.417Z,62.03
2019-03-23T11:26:35.093Z,61.57
2019-03-23T11:29:03.684Z,69.80
2019-03-23T11:31:32.281Z,66.77
2019-03-23T11:34:03.390Z,82.10
2019-03-23T11:36:32.042Z,77.17
2019-03-23T11:39:00.423Z,71.20
2019-03-23T11:41:28.703Z,71.90
2019-03-23T11:43:57.091Z,82.80
2019-03-23T11:46:26.408Z,98.07
2019-03-23T11:48:55.478Z,107.87
2019-03-23T11:51:24.394Z,111.43
2019-03-23T11:53:53.119Z,113.43
2019-03-23T11:56:21.994Z,102.40
2019-03-23T11:58:50.632Z,90.53
2019-03-23T12:01:19.002Z,86.83
2019-03-23T12:03:47.861Z,79.90
2019-03-23T12:06:17.419Z,79.17
2019-03-23T12:08:45.734Z,79.10
2019-03-23T12:11:14.318Z,76.10
2019-03-23T12:13:42.839Z,72.87
2019-03-23T12:16:11.506Z,70.87
2019-03-23T12:18:39.927Z,70.87
2019-03-23T12:21:08.570Z,67.87
2019-03-23T12:23:37.131Z,67.60
2019-03-23T12:26:05.917Z,63.80
2019-03-23T12:28:34.605Z,62.97
2019-03-23T12:31:02.905Z,58.67
2019-03-23T12:33:31.894Z,59.40
2019-03-23T12:36:00.470Z,56.07
2019-03-23T12:38:29.328Z,55.80
2019-03-23T12:40:58.030Z,55.10
2019-03-23T12:43:26.716Z,54.67
2019-03-23T12:45:56.729Z,51.97
2019-03-23T12:48:25.077Z,50.77
2019-03-23T12:50:53.703Z,49.13
2019-03-23T12:53:22.416Z,48.50
2019-03-23T12:55:51.245Z,47.80
2019-03-23T12:58:22.964Z,43.93
2019-03-23T13:00:51.664Z,38.97
2019-03-23T13:03:20.724Z,46.77
2019-03-23T13:05:49.843Z,45.00
2019-03-23T13:08:18.892Z,43.53
2019-03-23T13:10:47.472Z,43.00
2019-03-23T13:13:15.794Z,40.80
2019-03-23T13:15:44.178Z,47.47
2019-03-23T13:18:13.057Z,43.67
2019-03-23T13:20:41.839Z,40.77
2019-03-23T13:23:12.567Z,39.57
2019-03-23T13:25:40.743Z,37.27
2019-03-23T13:28:09.030Z,37.53
2019-03-23T13:30:37.609Z,35.63
2019-03-23T13:33:05.930Z,33.27
2019-03-23T13:35:34.671Z,32.17
2019-03-23T13:38:03.288Z,31.67
2019-03-23T13:40:31.934Z,29.00
2019-03-23T13:43:00.220Z,29.63
2019-03-23T13:45:28.822Z,29.23
2019-03-23T13:47:57.482Z,28.77
2019-03-23T13:50:27.567Z,28.27
2019-03-23T13:52:55.877Z,27.57
2019-03-23T13:55:30.926Z,41.40
2019-03-23T13:58:13.831Z,31.27
2019-03-23T14:00:42.547Z,116.13
2019-03-23T14:03:11.219Z,59.67
2019-03-23T14:05:39.898Z,54.97
2019-03-23T14:08:08.201Z,62.20
2019-03-23T14:10:36.571Z,63.57
2019-03-23T14:13:05.241Z,65.40
2019-03-23T14:15:33.859Z,65.87
2019-03-23T14:18:02.511Z,63.63
2019-03-23T14:20:31.642Z,66.03
2019-03-23T14:23:02.890Z,64.10
2019-03-23T14:25:30.452Z,63.17
2019-03-23T14:28:00.359Z,63.30
2019-03-23T14:30:29.013Z,61.33
2019-03-23T14:32:57.463Z,65.03
2019-03-23T14:35:25.822Z,61.13
2019-03-23T14:37:54.130Z,60.30
2019-03-23T14:40:23.058Z,58.97
2019-03-23T14:42:51.674Z,58.93
2019-03-23T14:45:20.034Z,58.63
2019-03-23T14:47:48.352Z,59.07
2019-03-23T14:50:16.671Z,69.63
2019-03-23T14:52:45.434Z,77.43
2019-03-23T14:55:14.233Z,94.60
2019-03-23T14:57:44.146Z,116.07
2019-03-23T15:00:13.118Z,94.53
2019-03-23T15:02:41.434Z,92.70
2019-03-23T15:05:10.157Z,86.53
2019-03-23T15:07:38.526Z,85.97
2019-03-23T15:10:08.084Z,78.33
2019-03-23T15:12:36.667Z,99.50
2019-03-23T15:15:06.993Z,92.07
2019-03-23T15:17:48.193Z,88.90
2019-03-23T15:20:08.558Z,81.93
2019-03-23T15:22:36.945Z,79.07
2019-03-23T15:25:06.911Z,74.80
2019-03-23T15:27:35.650Z,75.87
2019-03-23T15:30:06.328Z,71.30
2019-03-23T15:32:34.777Z,70.33
2019-03-23T15:35:03.985Z,68.13
2019-03-23T15:37:32.732Z,66.10
2019-03-23T15:40:01.094Z,67.50
2019-03-23T15:42:29.519Z,64.60
2019-03-23T15:44:57.842Z,66.03
2019-03-23T15:47:26.147Z,67.80
2019-03-23T15:49:54.450Z,68.20
2019-03-23T15:52:22.759Z,68.90
2019-03-23T15:54:51.073Z,70.13
2019-03-23T15:57:19.378Z,70.33
2019-03-23T15:59:47.928Z,64.20
2019-03-23T16:02:16.406Z,69.37
2019-03-23T16:04:45.118Z,104.93
2019-03-23T16:07:13.462Z,123.00
2019-03-23T16:09:42.104Z,126.40
2019-03-23T16:12:10.766Z,131.43
2019-03-23T16:14:39.176Z,113.77
2019-03-23T16:17:07.914Z,111.87
2019-03-23T16:19:38.267Z,100.97
2019-03-23T16:22:06.576Z,103.80
2019-03-23T16:24:35.228Z,101.07
2019-03-23T16:27:03.545Z,97.63
2019-03-23T16:29:31.930Z,90.87
2019-03-23T16:32:00.776Z,91.63
2019-03-23T16:34:29.116Z,89.20
2019-03-23T16:36:58.044Z,104.33
2019-03-23T16:39:28.591Z,106.80
2019-03-23T16:41:57.008Z,99.13
2019-03-23T16:44:25.302Z,141.37
2019-03-23T16:46:53.617Z,119.13
2019-03-23T16:49:21.934Z,103.77
2019-03-23T16:51:50.244Z,161.57
2019-03-23T16:54:18.952Z,176.00
2019-03-23T16:56:47.534Z,130.43
2019-03-23T16:59:16.090Z,170.73
2019-03-23T17:01:44.733Z,146.17
2019-03-23T17:04:13.084Z,146.27
2019-03-23T17:06:46.388Z,134.67
2019-03-23T17:09:11.849Z,140.20
2019-03-23T17:11:40.605Z,133.67
2019-03-23T17:14:09.282Z,130.23
2019-03-23T17:16:38.047Z,125.93
2019-03-23T17:19:06.361Z,127.40
2019-03-23T17:21:34.781Z,122.57
2019-03-23T17:24:03.273Z,119.60
2019-03-23T17:26:31.742Z,121.53
2019-03-23T17:29:00.556Z,184.23
2019-03-23T17:31:28.878Z,146.83
2019-03-23T17:33:57.514Z,147.23
2019-03-23T17:36:27.769Z,144.47
2019-03-23T17:38:55.943Z,148.87
2019-03-23T17:41:24.242Z,145.00
2019-03-23T17:43:52.555Z,139.57
2019-03-23T17:46:21.284Z,138.70
2019-03-23T17:48:49.939Z,136.37
2019-03-23T17:51:18.528Z,136.93
2019-03-23T17:53:46.850Z,136.27
2019-03-23T17:56:15.203Z,165.50
2019-03-23T17:58:44.172Z,176.73
2019-03-23T18:01:19.353Z,181.80
2019-03-23T18:03:43.095Z,183.50
2019-03-23T18:06:11.673Z,182.17
2019-03-23T18:08:40.407Z,178.07
2019-03-23T18:11:08.768Z,180.13
2019-03-23T18:13:37.425Z,173.93
2019-03-23T18:16:05.718Z,172.47
2019-03-23T18:18:34.037Z,171.00
2019-03-23T18:21:02.332Z,165.93
2019-03-23T18:23:30.948Z,163.80
2019-03-23T18:25:59.401Z,161.07
2019-03-23T18:28:27.716Z,159.97
2019-03-23T18:30:56.468Z,154.53
2019-03-23T18:33:25.130Z,150.37
2019-03-23T18:35:53.471Z,147.67
2019-03-23T18:38:22.130Z,184.63
2019-03-23T18:40:50.743Z,195.97
2019-03-23T18:43:27.038Z,220.90
2019-03-23T18:45:49.520Z,217.47
2019-03-23T18:48:17.808Z,217.10
2019-03-23T18:50:46.498Z,234.80
2019-03-23T18:53:15.602Z,267.40
2019-03-23T18:55:44.363Z,269.27
2019-03-23T18:58:12.930Z,277.07
2019-03-23T19:00:42.276Z,276.87
2019-03-23T19:03:11.190Z,274.57
2019-03-23T19:05:39.660Z,264.73
2019-03-23T19:08:08.141Z,249.53
2019-03-23T19:10:36.921Z,251.20
2019-03-23T19:13:05.686Z,270.20
2019-03-23T19:15:34.015Z,273.40
2019-03-23T19:18:02.833Z,249.93
2019-03-23T19:20:31.545Z,231.23
2019-03-23T19:25:23.126Z,227.30
2019-03-23T19:27:51.430Z,210.67
2019-03-23T19:30:19.948Z,198.27
2019-03-23T19:32:48.331Z,187.97
2019-03-23T19:35:16.996Z,220.83
2019-03-23T19:37:45.392Z,245.23
2019-03-23T19:40:14.266Z,233.90
2019-03-23T19:42:42.631Z,243.37
2019-03-23T19:45:11.181Z,266.50
2019-03-23T19:47:39.903Z,250.60
2019-03-23T19:50:08.385Z,284.93
2019-03-23T19:52:36.813Z,278.27
2019-03-23T19:55:08.406Z,262.47
2019-03-23T19:57:37.244Z,247.97
2019-03-23T20:00:09.487Z,250.10
2019-03-23T20:02:38.343Z,243.23
2019-03-23T20:05:07.153Z,239.40
2019-03-23T20:07:35.526Z,230.87
2019-03-23T20:10:06.127Z,229.47
2019-03-23T20:12:34.791Z,228.57
2019-03-23T20:15:04.183Z,220.67
2019-03-23T20:17:32.763Z,216.40
2019-03-23T20:20:01.333Z,211.10
2019-03-23T20:22:29.662Z,216.30
2019-03-23T20:24:58.309Z,195.53
2019-03-23T20:27:26.890Z,196.90
2019-03-23T20:29:55.470Z,196.80
2019-03-23T20:32:24.052Z,206.43
2019-03-23T20:34:52.372Z,184.00
2019-03-23T20:37:20.668Z,190.77
2019-03-23T20:39:50.944Z,189.60
2019-03-23T20:42:20.983Z,190.57
2019-03-23T20:44:49.736Z,186.07
2019-03-23T20:47:18.418Z,195.63
2019-03-23T20:49:47.016Z,182.57
2019-03-23T20:52:16.101Z,171.93
2019-03-23T20:54:44.414Z,169.93
2019-03-23T20:57:23.258Z,173.83
2019-03-23T20:59:43.119Z,183.93
2019-03-23T21:02:11.767Z,168.77
2019-03-23T21:04:40.268Z,182.63
2019-03-23T21:07:08.949Z,193.13
2019-03-23T21:09:37.368Z,176.80
2019-03-23T21:12:05.720Z,193.37
2019-03-23T21:14:34.144Z,190.37
2019-03-23T21:17:02.787Z,187.57
2019-03-23T21:19:31.088Z,179.37
2019-03-23T21:21:59.422Z,175.30
2019-03-23T21:24:27.819Z,165.50
2019-03-23T21:26:58.233Z,195.03
2019-03-23T21:29:26.670Z,191.83
2019-03-23T21:31:55.049Z,190.07
2019-03-23T21:34:23.412Z,189.43
2019-03-23T21:36:52.018Z,172.03
2019-03-23T21:39:20.743Z,165.07
2019-03-23T21:41:49.091Z,155.93
2019-03-23T21:44:17.694Z,159.90
2019-03-23T21:46:45.981Z,147.67
2019-03-23T21:49:14.767Z,157.40
2019-03-23T21:51:46.508Z,161.50
2019-03-23T21:54:15.108Z,158.17
2019-03-23T21:56:43.675Z,167.10
2019-03-23T21:59:12.263Z,166.67
2019-03-23T22:01:43.776Z,161.13
2019-03-23T22:04:12.104Z,162.87
2019-03-23T22:06:40.662Z,168.80
2019-03-23T22:09:09.072Z,165.97
2019-03-23T22:11:37.634Z,161.97
2019-03-23T22:14:06.228Z,185.53
2019-03-23T22:16:34.567Z,158.07
2019-03-23T22:19:02.928Z,157.77
2019-03-23T22:21:31.242Z,161.63
2019-03-23T22:23:59.546Z,157.87
2019-03-23T22:26:28.425Z,152.83
2019-03-23T22:28:57.051Z,154.87
2019-03-23T22:31:25.700Z,152.17
2019-03-23T22:33:54.417Z,151.30
2019-03-23T22:36:24.715Z,149.37
2019-03-23T22:38:53.288Z,142.57
2019-03-23T22:41:23.257Z,144.97
2019-03-23T22:43:51.605Z,170.77
2019-03-23T22:46:20.005Z,166.40
2019-03-23T22:48:48.385Z,183.73
2019-03-23T22:51:17.456Z,160.83
2019-03-23T22:53:47.756Z,180.47
2019-03-23T22:56:16.339Z,156.87
2019-03-23T22:58:46.258Z,159.13
2019-03-23T23:01:15.071Z,154.47
2019-03-23T23:03:43.739Z,170.40
2019-03-23T23:06:12.057Z,149.67
2019-03-23T23:08:40.372Z,142.70
2019-03-23T23:11:08.966Z,150.30
2019-03-23T23:13:37.662Z,139.17
2019-03-23T23:16:05.965Z,138.23
2019-03-23T23:18:34.619Z,142.63
2019-03-23T23:21:02.973Z,139.70
2019-03-23T23:23:31.289Z,139.03
2019-03-23T23:25:59.873Z,137.73
2019-03-23T23:28:28.163Z,134.87
2019-03-23T23:30:56.826Z,130.77
2019-03-23T23:33:25.125Z,131.43
2019-03-23T23:35:53.696Z,129.63
2019-03-23T23:38:22.023Z,128.67
2019-03-23T23:40:50.383Z,127.53
2019-03-23T23:43:19.027Z,121.13
2019-03-23T23:45:47.606Z,117.00
2019-03-23T23:48:18.694Z,115.60
2019-03-23T23:50:47.252Z,116.27
2019-03-23T23:53:15.551Z,125.73
2019-03-23T23:55:44.302Z,174.53
2019-03-23T23:58:12.893Z,149.43
